Terminal Aerodrome Forecast
Issued by NWS Jackson, MS

Home | Current Version | Previous Version | Text Only | Print | Product List | Glossary On
Versions: 1 2 3 4 5 6 7 8 9 10 11 12 13 14 15 16 17
000
FTUS44 KJAN 301140
TAFJAN
TAF
KJAN 301140Z 3012/0112 19005KT P6SM SCT040 BKN120
     FM301400 25009KT P6SM VCTS SCT020 BKN040CB
     FM301700 26015G25KT P6SM TSRA BKN050CB
     FM302200 25010KT P6SM VCSH BKN060
     FM010200 21004KT P6SM FEW250=

USA.gov is the U.S. government's official web portal to all federal, state and local government web resources and services.